Time;durP1;ratioP1;P1;durP2;ratioP2;P2;SDS_P1;SDS_P2;PMS_P1;PMS_P2;Temp;Humidity;BMP_temperature;BMP_pressure;BME280_temperature;BME280_humidity;BME280_pressure;Samples;Min_cycle;Max_cycle;Signal;HPM_P1;HPM_P2
2022/12/10 00:00:46;;;;;;;28.50;15.80;;;;;;;;;;5074051;28;20294;-84
2022/12/10 00:03:13;;;;;;;22.93;15.23;;;;;;;;;;5074642;28;20206;-83
2022/12/10 00:05:41;;;;;;;27.23;16.63;;;;;;;;;;5071908;28;20229;-85
2022/12/10 00:08:08;;;;;;;27.33;16.40;;;;;;;;;;5073017;28;20674;-84
2022/12/10 00:10:40;;;;;;;25.60;15.93;;;;;;;;;;5073621;28;20240;-84
2022/12/10 00:13:07;;;;;;;25.37;16.27;;;;;;;;;;5074466;28;20198;-84
2022/12/10 00:15:35;;;;;;;29.40;16.83;;;;;;;;;;5073582;28;20229;-84
2022/12/10 00:18:02;;;;;;;24.87;15.73;;;;;;;;;;5072411;28;20205;-84
2022/12/10 00:20:29;;;;;;;21.90;14.43;;;;;;;;;;5072195;28;20232;-84
2022/12/10 00:22:56;;;;;;;24.80;15.40;;;;;;;;;;5073394;28;20221;-84
2022/12/10 00:25:24;;;;;;;27.13;17.07;;;;;;;;;;5073180;28;20235;-83
2022/12/10 00:27:52;;;;;;;27.77;15.43;;;;;;;;;;5073488;28;20216;-84
2022/12/10 00:30:19;;;;;;;27.93;15.70;;;;;;;;;;5072581;28;20219;-84
2022/12/10 00:32:46;;;;;;;25.47;16.17;;;;;;;;;;5073447;28;20237;-83
2022/12/10 00:35:13;;;;;;;24.47;14.10;;;;;;;;;;5072933;28;20661;-83
2022/12/10 00:37:40;;;;;;;27.27;16.33;;;;;;;;;;5073327;28;20213;-84
2022/12/10 00:40:10;;;;;;;26.20;15.83;;;;;;;;;;5072888;28;20205;-84
2022/12/10 00:42:37;;;;;;;23.60;16.10;;;;;;;;;;5074130;28;20239;-85
2022/12/10 00:45:06;;;;;;;26.47;15.30;;;;;;;;;;5073218;28;20228;-83
2022/12/10 00:47:33;;;;;;;24.77;15.37;;;;;;;;;;5073818;28;20217;-84
2022/12/10 00:50:00;;;;;;;26.60;15.83;;;;;;;;;;5073294;28;20240;-84
2022/12/10 00:52:28;;;;;;;25.47;15.50;;;;;;;;;;5073082;28;20237;-84
2022/12/10 00:54:55;;;;;;;25.53;15.37;;;;;;;;;;5073539;28;20212;-83
2022/12/10 00:57:22;;;;;;;25.50;16.10;;;;;;;;;;5068991;28;20229;-84
2022/12/10 00:59:49;;;;;;;26.47;16.03;;;;;;;;;;5073630;28;20209;-84
2022/12/10 01:02:17;;;;;;;23.57;15.37;;;;;;;;;;5072862;28;20621;-85
2022/12/10 01:04:44;;;;;;;26.37;16.13;;;;;;;;;;5073430;28;20221;-84
2022/12/10 01:07:13;;;;;;;26.47;16.67;;;;;;;;;;5055303;28;20280;-85
2022/12/10 01:09:41;;;;;;;24.40;15.10;;;;;;;;;;5052981;28;20206;-84
2022/12/10 01:12:08;;;;;;;26.97;15.30;;;;;;;;;;5052634;28;20319;-84
2022/12/10 01:14:36;;;;;;;24.03;15.23;;;;;;;;;;5053052;28;20214;-85
2022/12/10 01:17:04;;;;;;;29.60;16.53;;;;;;;;;;5060997;28;20705;-84
2022/12/10 01:19:33;;;;;;;25.83;15.97;;;;;;;;;;5073079;28;20220;-84
2022/12/10 01:22:00;;;;;;;25.37;15.70;;;;;;;;;;5072340;28;20248;-84
2022/12/10 01:24:28;;;;;;;24.63;16.07;;;;;;;;;;5073559;28;20293;-84
2022/12/10 01:26:55;;;;;;;24.50;15.13;;;;;;;;;;5066472;28;20313;-85
2022/12/10 01:29:22;;;;;;;25.47;16.03;;;;;;;;;;5053301;28;20214;-83
2022/12/10 01:31:52;;;;;;;25.47;15.50;;;;;;;;;;5052202;28;20238;-85
2022/12/10 01:34:19;;;;;;;21.43;13.93;;;;;;;;;;5053132;28;20206;-84
2022/12/10 01:36:50;;;;;;;28.80;15.23;;;;;;;;;;5052588;28;20248;-85
2022/12/10 01:39:18;;;;;;;24.73;14.80;;;;;;;;;;5052630;28;20213;-84
2022/12/10 01:41:45;;;;;;;25.50;15.90;;;;;;;;;;5052524;28;20237;-84
2022/12/10 01:44:31;;;;;;;24.93;15.63;;;;;;;;;;5052718;28;20206;-84
2022/12/10 01:46:59;;;;;;;28.13;16.57;;;;;;;;;;5052315;28;20238;-84
2022/12/10 01:49:28;;;;;;;25.83;15.87;;;;;;;;;;5052106;28;20202;-85
2022/12/10 01:51:57;;;;;;;22.77;14.67;;;;;;;;;;5051787;28;20240;-84
2022/12/10 01:54:26;;;;;;;25.23;14.03;;;;;;;;;;5051987;28;20205;-84
2022/12/10 01:56:56;;;;;;;27.10;15.33;;;;;;;;;;5051785;28;20236;-83
2022/12/10 01:59:25;;;;;;;27.23;16.10;;;;;;;;;;5052201;28;20213;-84
2022/12/10 02:01:57;;;;;;;24.73;15.23;;;;;;;;;;5051668;28;20249;-84
2022/12/10 02:04:30;;;;;;;27.37;16.40;;;;;;;;;;5065357;28;20200;-84
2022/12/10 02:07:01;;;;;;;26.10;14.83;;;;;;;;;;5055257;28;20713;-84
2022/12/10 02:09:31;;;;;;;24.60;15.10;;;;;;;;;;5069349;28;20227;-85
2022/12/10 02:12:03;;;;;;;23.13;14.63;;;;;;;;;;5071404;28;20252;-84
2022/12/10 02:14:34;;;;;;;25.90;15.40;;;;;;;;;;5072449;28;20197;-85
2022/12/10 02:17:04;;;;;;;23.27;13.57;;;;;;;;;;5071293;28;20240;-84
2022/12/10 02:19:40;;;;;;;24.67;15.83;;;;;;;;;;5071988;28;20212;-83
2022/12/10 02:22:09;;;;;;;26.17;16.53;;;;;;;;;;5071265;28;20255;-84
2022/12/10 02:24:37;;;;;;;24.67;15.17;;;;;;;;;;5071891;28;20673;-84
2022/12/10 02:27:06;;;;;;;25.00;15.07;;;;;;;;;;5051733;28;20240;-84
2022/12/10 02:29:36;;;;;;;23.10;14.87;;;;;;;;;;5052190;28;20212;-85
2022/12/10 02:32:04;;;;;;;25.00;14.97;;;;;;;;;;5055088;28;20287;-84
2022/12/10 02:34:33;;;;;;;23.90;14.97;;;;;;;;;;5064247;28;20208;-85
2022/12/10 02:37:02;;;;;;;24.37;15.20;;;;;;;;;;5067421;28;20713;-86
2022/12/10 02:39:33;;;;;;;23.73;15.00;;;;;;;;;;5056450;28;20208;-85
2022/12/10 02:42:01;;;;;;;24.33;15.97;;;;;;;;;;5055767;28;20240;-85
2022/12/10 02:44:29;;;;;;;25.97;15.77;;;;;;;;;;5056383;28;20670;-85
2022/12/10 02:46:59;;;;;;;24.63;14.37;;;;;;;;;;5055638;28;20244;-85
2022/12/10 02:49:27;;;;;;;21.63;13.83;;;;;;;;;;5056661;28;20205;-85
2022/12/10 02:51:54;;;;;;;22.67;14.33;;;;;;;;;;5064385;28;20728;-85
2022/12/10 02:54:38;;;;;;;25.83;14.47;;;;;;;;;;5076392;28;20667;-85
2022/12/10 02:57:09;;;;;;;24.00;14.60;;;;;;;;;;5075654;28;20238;-85
2022/12/10 02:59:40;;;;;;;22.47;14.50;;;;;;;;;;5076046;28;20586;-85
2022/12/10 03:02:12;;;;;;;21.43;13.77;;;;;;;;;;5074699;28;20236;-85
2022/12/10 03:04:44;;;;;;;21.73;12.90;;;;;;;;;;5074473;28;20189;-85
2022/12/10 03:07:13;;;;;;;20.03;13.63;;;;;;;;;;5075348;28;20255;-85
2022/12/10 03:09:43;;;;;;;20.27;12.97;;;;;;;;;;5075671;28;20211;-85
2022/12/10 03:12:15;;;;;;;22.90;14.37;;;;;;;;;;5075029;28;20255;-85
2022/12/10 03:14:43;;;;;;;23.90;14.47;;;;;;;;;;5061579;28;20209;-85
2022/12/10 03:17:11;;;;;;;24.73;14.87;;;;;;;;;;5055341;28;20248;-85
2022/12/10 03:19:41;;;;;;;22.70;13.97;;;;;;;;;;5055833;28;20692;-84
2022/12/10 03:22:09;;;;;;;21.77;12.97;;;;;;;;;;5055141;28;20237;-85
2022/12/10 03:24:36;;;;;;;25.07;14.47;;;;;;;;;;5055610;28;20217;-84
2022/12/10 03:27:05;;;;;;;22.00;13.97;;;;;;;;;;5055131;28;20235;-83
2022/12/10 03:29:34;;;;;;;24.03;13.77;;;;;;;;;;5055310;28;20695;-87
2022/12/10 03:32:02;;;;;;;21.47;13.90;;;;;;;;;;5059735;28;20236;-85
2022/12/10 03:34:30;;;;;;;22.67;14.37;;;;;;;;;;5075914;28;20215;-85
2022/12/10 03:36:58;;;;;;;21.70;13.93;;;;;;;;;;5075023;28;20229;-85
2022/12/10 03:39:25;;;;;;;24.63;15.03;;;;;;;;;;5075215;28;20212;-85
2022/12/10 03:41:52;;;;;;;22.43;14.37;;;;;;;;;;5074882;28;20248;-85
2022/12/10 03:44:28;;;;;;;24.07;14.73;;;;;;;;;;5068329;28;20199;-85
2022/12/10 03:46:55;;;;;;;21.03;13.57;;;;;;;;;;5054561;28;20244;-85
2022/12/10 03:49:22;;;;;;;22.97;14.17;;;;;;;;;;5073299;28;20331;-85
2022/12/10 03:51:51;;;;;;;26.97;16.00;;;;;;;;;;5074181;28;20238;-85
2022/12/10 03:54:18;;;;;;;23.63;15.30;;;;;;;;;;5074992;28;20212;-85
2022/12/10 03:56:45;;;;;;;24.80;15.23;;;;;;;;;;5074404;28;20240;-85
2022/12/10 03:59:12;;;;;;;19.00;13.03;;;;;;;;;;5058242;28;20217;-85
2022/12/10 04:01:39;;;;;;;24.10;14.07;;;;;;;;;;5054471;28;20244;-84
2022/12/10 04:04:07;;;;;;;22.43;14.17;;;;;;;;;;5054751;28;20212;-85
2022/12/10 04:06:34;;;;;;;23.80;15.27;;;;;;;;;;5054394;28;20241;-85
2022/12/10 04:09:02;;;;;;;23.97;14.40;;;;;;;;;;5068325;28;20215;-85
2022/12/10 04:11:29;;;;;;;22.97;14.43;;;;;;;;;;5074208;28;20249;-84
2022/12/10 04:16:41;;;;;;;23.63;15.07;;;;;;;;;;5074149;28;20250;-85
2022/12/10 04:19:10;;;;;;;23.10;14.23;;;;;;;;;;5070807;28;20259;-85
2022/12/10 04:27:12;;;;;;;23.87;14.97;;;;;;;;;;5073681;28;20244;-85
2022/12/10 04:29:39;;;;;;;20.67;13.10;;;;;;;;;;5055152;28;20209;-84
2022/12/10 04:32:06;;;;;;;22.43;14.67;;;;;;;;;;5053525;28;20609;-84
2022/12/10 04:34:33;;;;;;;22.23;14.40;;;;;;;;;;5054520;28;20220;-85
2022/12/10 04:37:01;;;;;;;23.33;15.03;;;;;;;;;;5053474;28;20239;-85
2022/12/10 04:39:30;;;;;;;25.27;14.63;;;;;;;;;;5054142;28;20204;-84
2022/12/10 04:41:57;;;;;;;22.97;14.97;;;;;;;;;;5053562;28;20241;-85
2022/12/10 04:44:24;;;;;;;22.90;14.60;;;;;;;;;;5053948;28;20700;-85
2022/12/10 04:46:51;;;;;;;25.40;15.73;;;;;;;;;;5063541;28;20235;-84
2022/12/10 04:49:19;;;;;;;21.60;15.03;;;;;;;;;;5073711;28;20209;-84
2022/12/10 04:51:46;;;;;;;24.37;14.80;;;;;;;;;;5073317;28;20244;-85
2022/12/10 04:54:13;;;;;;;23.43;14.57;;;;;;;;;;5072893;28;20224;-84
2022/12/10 04:56:42;;;;;;;24.97;15.50;;;;;;;;;;5072635;28;20229;-84
2022/12/10 04:59:10;;;;;;;21.97;14.90;;;;;;;;;;5078898;28;20203;-85
2022/12/10 05:01:37;;;;;;;21.53;14.53;;;;;;;;;;5069492;28;20229;-84
2022/12/10 05:04:05;;;;;;;24.70;14.83;;;;;;;;;;5069747;28;20227;-85
2022/12/10 05:06:33;;;;;;;22.57;14.40;;;;;;;;;;5060829;28;20225;-85
2022/12/10 05:09:00;;;;;;;23.90;14.50;;;;;;;;;;5073517;28;20205;-84
2022/12/10 05:11:28;;;;;;;23.47;14.17;;;;;;;;;;5072802;28;20601;-84
2022/12/10 05:13:56;;;;;;;21.97;14.67;;;;;;;;;;5073594;28;20575;-84
2022/12/10 05:16:25;;;;;;;22.87;14.30;;;;;;;;;;5072418;28;20232;-84
2022/12/10 05:18:52;;;;;;;24.27;15.17;;;;;;;;;;5073558;28;20592;-85
2022/12/10 05:21:20;;;;;;;24.00;14.97;;;;;;;;;;5071811;28;20240;-84
2022/12/10 05:23:47;;;;;;;22.10;13.03;;;;;;;;;;5059735;28;20213;-83
2022/12/10 05:26:16;;;;;;;21.30;14.67;;;;;;;;;;5072913;28;20247;-85
2022/12/10 05:28:43;;;;;;;22.67;14.37;;;;;;;;;;5073114;28;20208;-85
2022/12/10 05:31:14;;;;;;;22.63;14.20;;;;;;;;;;5072791;28;20603;-85
2022/12/10 05:33:41;;;;;;;23.03;14.53;;;;;;;;;;5073165;28;20210;-84
2022/12/10 05:36:08;;;;;;;22.93;15.47;;;;;;;;;;5073038;28;20236;-85
2022/12/10 05:38:36;;;;;;;24.13;15.60;;;;;;;;;;5073066;28;20577;-85
2022/12/10 05:41:03;;;;;;;22.67;14.67;;;;;;;;;;5072389;28;20246;-84
2022/12/10 05:43:30;;;;;;;22.70;15.07;;;;;;;;;;5073583;28;20558;-85
2022/12/10 05:46:00;;;;;;;22.77;14.47;;;;;;;;;;5072615;28;20232;-85
2022/12/10 05:48:29;;;;;;;26.27;14.33;;;;;;;;;;5073395;28;20219;-84
2022/12/10 05:50:56;;;;;;;27.83;16.50;;;;;;;;;;5072307;28;20236;-85
2022/12/10 05:53:23;;;;;;;22.73;13.93;;;;;;;;;;5072394;28;20243;-85
2022/12/10 05:55:50;;;;;;;23.63;14.07;;;;;;;;;;5052551;28;20732;-84
2022/12/10 05:58:17;;;;;;;23.33;15.20;;;;;;;;;;5052417;28;20224;-85
2022/12/10 06:00:44;;;;;;;24.23;14.23;;;;;;;;;;5052308;28;20229;-85
2022/12/10 06:03:12;;;;;;;24.53;15.00;;;;;;;;;;5064632;28;20219;-84
2022/12/10 06:05:40;;;;;;;21.73;14.47;;;;;;;;;;5071318;28;20236;-85
2022/12/10 06:08:08;;;;;;;24.80;14.77;;;;;;;;;;5072817;28;20217;-85
2022/12/10 06:10:35;;;;;;;22.33;14.73;;;;;;;;;;5072450;28;20235;-83
2022/12/10 06:13:02;;;;;;;25.83;15.37;;;;;;;;;;5063463;28;20272;-84
2022/12/10 06:15:29;;;;;;;27.03;15.43;;;;;;;;;;5072382;28;20239;-85
2022/12/10 06:17:56;;;;;;;27.37;15.83;;;;;;;;;;5072705;28;20212;-84
2022/12/10 06:20:24;;;;;;;24.37;14.83;;;;;;;;;;5072197;28;20236;-84
2022/12/10 06:22:52;;;;;;;26.13;14.20;;;;;;;;;;5071784;28;20219;-85
2022/12/10 06:25:19;;;;;;;24.20;15.53;;;;;;;;;;5059111;28;20212;-85
2022/12/10 06:27:46;;;;;;;27.23;15.60;;;;;;;;;;5052283;28;20204;-84
2022/12/10 06:30:14;;;;;;;23.90;14.53;;;;;;;;;;5052085;28;20211;-84
2022/12/10 06:32:42;;;;;;;25.87;15.77;;;;;;;;;;5052169;28;20685;-84
2022/12/10 06:35:10;;;;;;;25.27;15.77;;;;;;;;;;5052419;28;20208;-84
2022/12/10 06:37:37;;;;;;;27.80;15.97;;;;;;;;;;5058924;28;20203;-84
2022/12/10 06:40:06;;;;;;;30.33;15.43;;;;;;;;;;5072667;28;20211;-84
2022/12/10 06:42:33;;;;;;;30.97;16.10;;;;;;;;;;5072381;28;20228;-84
2022/12/10 06:45:00;;;;;;;26.23;15.50;;;;;;;;;;5072607;28;20303;-84
2022/12/10 06:47:28;;;;;;;24.87;15.63;;;;;;;;;;5067184;28;20231;-85
2022/12/10 06:49:55;;;;;;;28.80;16.07;;;;;;;;;;5052137;28;20217;-84
2022/12/10 06:52:22;;;;;;;26.67;16.33;;;;;;;;;;5051447;28;20237;-84
2022/12/10 06:54:49;;;;;;;25.10;15.43;;;;;;;;;;5052178;28;20211;-84
2022/12/10 06:57:17;;;;;;;28.53;17.23;;;;;;;;;;5051189;28;20244;-84
2022/12/10 06:59:44;;;;;;;25.03;16.20;;;;;;;;;;5051558;28;20684;-84
2022/12/10 07:02:11;;;;;;;28.20;16.20;;;;;;;;;;5051488;28;20713;-83
2022/12/10 07:04:39;;;;;;;27.27;17.17;;;;;;;;;;5052601;28;20215;-84
2022/12/10 07:07:06;;;;;;;29.73;17.30;;;;;;;;;;5052599;28;20239;-84
2022/12/10 07:09:33;;;;;;;30.80;16.73;;;;;;;;;;5060081;28;20291;-84
2022/12/10 07:12:00;;;;;;;28.60;16.93;;;;;;;;;;5071054;28;20240;-84
2022/12/10 07:14:29;;;;;;;41.63;21.60;;;;;;;;;;5070005;28;20221;-85
2022/12/10 07:16:56;;;;;;;41.40;22.27;;;;;;;;;;5063561;28;20246;-84
2022/12/10 07:19:24;;;;;;;42.27;21.33;;;;;;;;;;5075320;28;20211;-84
2022/12/10 07:21:51;;;;;;;35.33;19.33;;;;;;;;;;5074764;28;20825;-84
2022/12/10 07:24:19;;;;;;;30.37;18.53;;;;;;;;;;5075269;28;20199;-83
2022/12/10 07:26:47;;;;;;;28.47;17.60;;;;;;;;;;5090243;28;20715;-86
2022/12/10 07:29:15;;;;;;;25.20;17.53;;;;;;;;;;5095786;28;20679;-86
2022/12/10 07:31:44;;;;;;;24.60;16.10;;;;;;;;;;5095546;28;20246;-85
2022/12/10 07:34:11;;;;;;;27.53;16.10;;;;;;;;;;5078176;28;20223;-85
2022/12/10 07:36:39;;;;;;;21.73;15.83;;;;;;;;;;5083209;28;20700;-85
2022/12/10 07:39:07;;;;;;;29.40;17.67;;;;;;;;;;5086413;28;20199;-85
2022/12/10 07:41:34;;;;;;;25.50;16.70;;;;;;;;;;5079824;28;20228;-85
2022/12/10 07:44:01;;;;;;;30.63;17.20;;;;;;;;;;5096128;28;20669;-85
2022/12/10 07:46:30;;;;;;;24.53;15.33;;;;;;;;;;5095360;28;20241;-85
2022/12/10 07:49:00;;;;;;;27.23;16.93;;;;;;;;;;5085806;28;20684;-84
2022/12/10 07:51:28;;;;;;;29.67;18.00;;;;;;;;;;5075072;28;20247;-85
2022/12/10 07:53:56;;;;;;;26.53;17.07;;;;;;;;;;5074937;28;20231;-84
2022/12/10 07:56:24;;;;;;;29.13;18.53;;;;;;;;;;5074366;28;20234;-84
2022/12/10 07:58:52;;;;;;;24.30;15.87;;;;;;;;;;5074623;28;20319;-84
2022/12/10 08:01:20;;;;;;;23.63;16.13;;;;;;;;;;5074885;28;20608;-85
2022/12/10 08:03:56;;;;;;;29.07;16.90;;;;;;;;;;5075087;28;20227;-84
2022/12/10 08:06:24;;;;;;;30.43;17.97;;;;;;;;;;5074494;28;20315;-84
2022/12/10 08:08:52;;;;;;;28.07;16.80;;;;;;;;;;5074857;28;20239;-85
2022/12/10 08:11:21;;;;;;;30.63;16.57;;;;;;;;;;5074008;28;20258;-85
2022/12/10 08:13:49;;;;;;;26.17;15.93;;;;;;;;;;5074715;28;20243;-84
2022/12/10 08:16:18;;;;;;;21.13;14.77;;;;;;;;;;5074377;28;20231;-82
2022/12/10 08:18:45;;;;;;;23.93;16.57;;;;;;;;;;5073663;28;20213;-82
2022/12/10 08:21:13;;;;;;;28.80;16.80;;;;;;;;;;5073293;28;20239;-83
2022/12/10 08:23:41;;;;;;;25.97;16.50;;;;;;;;;;5074175;28;20215;-83
2022/12/10 08:26:10;;;;;;;27.23;15.57;;;;;;;;;;5073701;28;20240;-84
2022/12/10 08:28:37;;;;;;;24.50;16.10;;;;;;;;;;5072955;28;20688;-84
2022/12/10 08:31:04;;;;;;;23.07;14.47;;;;;;;;;;5073689;28;20244;-86
2022/12/10 08:33:34;;;;;;;26.37;16.37;;;;;;;;;;5074239;28;20251;-83
2022/12/10 08:36:01;;;;;;;26.60;15.63;;;;;;;;;;5073395;28;20721;-85
2022/12/10 08:38:28;;;;;;;25.90;16.63;;;;;;;;;;5073299;28;20216;-84
2022/12/10 08:40:57;;;;;;;27.17;16.90;;;;;;;;;;5073011;28;20255;-83
2022/12/10 08:43:24;;;;;;;26.03;16.03;;;;;;;;;;5073700;28;20216;-83
2022/12/10 08:45:51;;;;;;;24.87;16.10;;;;;;;;;;5073364;28;20237;-85
2022/12/10 08:48:18;;;;;;;20.97;14.37;;;;;;;;;;5074275;28;20217;-85
2022/12/10 08:50:46;;;;;;;21.97;14.53;;;;;;;;;;5073151;28;20631;-84
2022/12/10 08:53:13;;;;;;;21.13;13.43;;;;;;;;;;5073364;28;20216;-83
2022/12/10 08:55:40;;;;;;;20.90;14.40;;;;;;;;;;5072770;28;20236;-83
2022/12/10 08:58:09;;;;;;;24.47;13.90;;;;;;;;;;5072862;28;20215;-84
2022/12/10 09:00:36;;;;;;;21.57;14.10;;;;;;;;;;5073041;28;20235;-84
2022/12/10 09:03:03;;;;;;;20.23;13.40;;;;;;;;;;5073153;28;20232;-84
2022/12/10 09:05:30;;;;;;;20.90;13.13;;;;;;;;;;5062248;28;20254;-83
2022/12/10 09:07:57;;;;;;;20.50;12.80;;;;;;;;;;5078946;28;20691;-83
2022/12/10 09:10:24;;;;;;;22.87;14.87;;;;;;;;;;5092405;28;20235;-84
2022/12/10 09:12:51;;;;;;;22.03;14.00;;;;;;;;;;5079630;28;20233;-84
2022/12/10 09:15:20;;;;;;;21.53;12.87;;;;;;;;;;5072483;28;20235;-84
2022/12/10 09:17:47;;;;;;;20.50;13.87;;;;;;;;;;5072793;28;20673;-88
2022/12/10 09:20:15;;;;;;;22.40;14.50;;;;;;;;;;5072813;28;20212;-85
2022/12/10 09:22:42;;;;;;;20.70;13.27;;;;;;;;;;5073176;28;20224;-83
2022/12/10 09:25:10;;;;;;;21.37;14.07;;;;;;;;;;5072838;28;20212;-83
2022/12/10 09:27:37;;;;;;;20.63;13.87;;;;;;;;;;5072451;28;20668;-82
2022/12/10 09:30:06;;;;;;;19.27;13.17;;;;;;;;;;5072339;28;20205;-83
2022/12/10 09:32:34;;;;;;;19.97;12.83;;;;;;;;;;5072568;28;20232;-84
2022/12/10 09:35:01;;;;;;;20.93;13.27;;;;;;;;;;5072663;28;20248;-82
2022/12/10 09:37:28;;;;;;;19.07;12.40;;;;;;;;;;5072486;28;20681;-84
2022/12/10 09:39:55;;;;;;;17.97;12.87;;;;;;;;;;5072517;28;20201;-84
2022/12/10 09:42:30;;;;;;;20.67;13.77;;;;;;;;;;5066693;28;20226;-82
2022/12/10 09:45:08;;;;;;;18.83;12.13;;;;;;;;;;5064212;28;20206;-81
2022/12/10 09:47:38;;;;;;;18.60;12.90;;;;;;;;;;5071407;28;20251;-82
2022/12/10 09:50:11;;;;;;;17.97;12.67;;;;;;;;;;5071014;28;20213;-85
2022/12/10 09:52:41;;;;;;;17.57;12.27;;;;;;;;;;5052670;28;20230;-82
2022/12/10 09:55:12;;;;;;;20.27;12.63;;;;;;;;;;5052679;28;20685;-83
2022/12/10 09:57:41;;;;;;;16.77;11.90;;;;;;;;;;5052305;28;20201;-83
2022/12/10 10:00:18;;;;;;;18.03;12.80;;;;;;;;;;5051422;28;20206;-83
2022/12/10 10:02:47;;;;;;;18.03;12.23;;;;;;;;;;5066696;28;20650;-83
2022/12/10 10:05:17;;;;;;;18.23;12.53;;;;;;;;;;5070678;28;20574;-84
2022/12/10 10:07:46;;;;;;;17.43;12.20;;;;;;;;;;5069574;28;20278;-89
2022/12/10 10:10:20;;;;;;;16.37;11.40;;;;;;;;;;5062403;28;20205;-82
2022/12/10 10:12:47;;;;;;;17.17;12.13;;;;;;;;;;5071812;28;20709;-83
2022/12/10 10:15:15;;;;;;;19.00;12.37;;;;;;;;;;5071550;28;20236;-83
2022/12/10 10:17:45;;;;;;;16.40;11.70;;;;;;;;;;5071464;28;20209;-83
2022/12/10 10:20:14;;;;;;;15.03;10.93;;;;;;;;;;5071949;28;20670;-85
2022/12/10 10:22:41;;;;;;;20.27;12.47;;;;;;;;;;5071796;28;20217;-83
2022/12/10 10:25:14;;;;;;;17.43;11.47;;;;;;;;;;5071636;28;20209;-86
2022/12/10 10:27:41;;;;;;;14.57;11.80;;;;;;;;;;5072128;28;20216;-83
2022/12/10 10:30:16;;;;;;;16.73;11.60;;;;;;;;;;5071394;28;20682;-83
2022/12/10 10:32:49;;;;;;;16.37;11.43;;;;;;;;;;5072010;28;20263;-83
2022/12/10 10:35:23;;;;;;;16.27;11.37;;;;;;;;;;5071390;28;20264;-82
2022/12/10 10:37:50;;;;;;;16.93;12.60;;;;;;;;;;5072421;28;20207;-83
2022/12/10 10:40:23;;;;;;;17.77;12.20;;;;;;;;;;5072604;28;20212;-83
2022/12/10 10:42:53;;;;;;;16.37;12.17;;;;;;;;;;5076276;28;20282;-83
2022/12/10 10:45:34;;;;;;;17.00;11.97;;;;;;;;;;5072591;28;20263;-83
2022/12/10 10:48:05;;;;;;;16.17;11.00;;;;;;;;;;5072190;28;20193;-84
2022/12/10 10:50:37;;;;;;;13.50;9.73;;;;;;;;;;5072047;28;20228;-83
2022/12/10 10:53:21;;;;;;;17.27;11.03;;;;;;;;;;5075634;28;20221;-83
2022/12/10 10:55:48;;;;;;;15.07;10.23;;;;;;;;;;5075214;28;20240;-83
2022/12/10 10:58:18;;;;;;;16.47;11.07;;;;;;;;;;5075054;28;20209;-83
2022/12/10 11:00:54;;;;;;;15.83;11.20;;;;;;;;;;5075030;28;20236;-84
2022/12/10 11:03:21;;;;;;;17.33;11.93;;;;;;;;;;5075691;28;20208;-83
2022/12/10 11:05:50;;;;;;;15.90;11.60;;;;;;;;;;5074813;28;20233;-83
2022/12/10 11:08:18;;;;;;;14.50;11.90;;;;;;;;;;5075058;28;20220;-83
2022/12/10 11:10:49;;;;;;;18.67;12.10;;;;;;;;;;5075014;28;20233;-82
2022/12/10 11:13:20;;;;;;;14.93;11.60;;;;;;;;;;5075323;28;20201;-83
2022/12/10 11:15:55;;;;;;;15.60;12.23;;;;;;;;;;5075673;28;20597;-83
2022/12/10 11:18:25;;;;;;;17.93;12.80;;;;;;;;;;5075381;28;20247;-83
2022/12/10 11:20:59;;;;;;;21.23;13.63;;;;;;;;;;5074666;28;20236;-83
2022/12/10 11:23:29;;;;;;;17.10;12.33;;;;;;;;;;5074936;28;20241;-82
2022/12/10 11:25:59;;;;;;;18.17;11.90;;;;;;;;;;5074278;28;20727;-83
2022/12/10 11:28:31;;;;;;;16.43;11.87;;;;;;;;;;5074573;28;20239;-83
2022/12/10 11:31:02;;;;;;;17.13;12.67;;;;;;;;;;5074246;28;20599;-84
2022/12/10 11:33:35;;;;;;;17.97;12.37;;;;;;;;;;5074802;28;20216;-83
2022/12/10 11:36:06;;;;;;;19.57;13.27;;;;;;;;;;5074253;28;20237;-84
2022/12/10 11:38:40;;;;;;;16.47;11.67;;;;;;;;;;5074620;28;20197;-84
2022/12/10 11:41:12;;;;;;;18.13;12.83;;;;;;;;;;5074158;28;20283;-83
2022/12/10 11:43:44;;;;;;;18.20;12.33;;;;;;;;;;5074866;28;20190;-84
2022/12/10 11:46:19;;;;;;;21.00;12.00;;;;;;;;;;5074594;28;20233;-83
2022/12/10 11:48:53;;;;;;;15.33;11.83;;;;;;;;;;5074560;28;20210;-83
2022/12/10 11:51:27;;;;;;;17.47;12.07;;;;;;;;;;5074437;28;20236;-83
2022/12/10 11:53:58;;;;;;;18.20;12.63;;;;;;;;;;5074889;28;20200;-83
2022/12/10 11:56:27;;;;;;;18.40;12.60;;;;;;;;;;5074246;28;20237;-84
2022/12/10 11:59:00;;;;;;;15.50;12.00;;;;;;;;;;5074559;28;20209;-83
2022/12/10 12:01:33;;;;;;;16.27;12.23;;;;;;;;;;5073948;28;20237;-83
2022/12/10 12:04:16;;;;;;;17.70;13.60;;;;;;;;;;5073259;28;20190;-83
2022/12/10 12:06:56;;;;;;;18.43;11.87;;;;;;;;;;5073671;28;20240;-83
2022/12/10 12:09:29;;;;;;;18.80;12.93;;;;;;;;;;5074232;28;20190;-83
2022/12/10 12:12:02;;;;;;;16.33;11.47;;;;;;;;;;5073522;28;20244;-83
2022/12/10 12:14:32;;;;;;;17.17;11.27;;;;;;;;;;5073828;28;20217;-83
2022/12/10 12:17:03;;;;;;;15.73;11.13;;;;;;;;;;5073232;28;20233;-82
2022/12/10 12:19:33;;;;;;;14.47;11.17;;;;;;;;;;5073818;28;20213;-83
2022/12/10 12:22:03;;;;;;;17.30;12.13;;;;;;;;;;5073241;28;20451;-83
2022/12/10 12:24:33;;;;;;;18.23;11.90;;;;;;;;;;5074264;28;20200;-83
2022/12/10 12:27:02;;;;;;;16.20;12.43;;;;;;;;;;5072959;28;20718;-83
2022/12/10 12:29:30;;;;;;;16.03;11.30;;;;;;;;;;5073494;28;20212;-82
2022/12/10 12:31:59;;;;;;;18.63;11.23;;;;;;;;;;5072816;28;20238;-83
2022/12/10 12:34:28;;;;;;;18.33;11.93;;;;;;;;;;5073604;28;20237;-82
2022/12/10 12:36:55;;;;;;;16.53;11.83;;;;;;;;;;5073052;28;20238;-83
2022/12/10 12:39:29;;;;;;;17.10;12.90;;;;;;;;;;5073292;28;20677;-83
2022/12/10 12:42:00;;;;;;;19.33;12.53;;;;;;;;;;5072823;28;20659;-83
2022/12/10 12:44:30;;;;;;;17.47;11.53;;;;;;;;;;5073773;28;20182;-83
2022/12/10 12:46:59;;;;;;;18.10;12.13;;;;;;;;;;5072947;28;20240;-83
2022/12/10 12:49:28;;;;;;;16.03;11.57;;;;;;;;;;5073254;28;20677;-83
2022/12/10 12:51:57;;;;;;;17.00;11.73;;;;;;;;;;5072719;28;20241;-84
2022/12/10 12:54:26;;;;;;;15.07;10.67;;;;;;;;;;5073443;28;20224;-84
2022/12/10 12:56:57;;;;;;;17.17;12.13;;;;;;;;;;5072647;28;20237;-83
2022/12/10 12:59:30;;;;;;;16.77;11.77;;;;;;;;;;5073056;28;20200;-83
2022/12/10 13:01:59;;;;;;;17.27;12.50;;;;;;;;;;5072453;28;20317;-83
2022/12/10 13:04:27;;;;;;;16.07;11.90;;;;;;;;;;5073172;28;20205;-83
2022/12/10 13:07:13;;;;;;;19.70;12.53;;;;;;;;;;5072589;28;20237;-83
2022/12/10 13:09:46;;;;;;;17.80;12.33;;;;;;;;;;5072861;28;20200;-83
2022/12/10 13:12:27;;;;;;;16.47;12.07;;;;;;;;;;5072196;28;20244;-83
2022/12/10 13:15:03;;;;;;;17.73;11.57;;;;;;;;;;5072595;28;20210;-84
2022/12/10 13:17:33;;;;;;;16.23;11.47;;;;;;;;;;5072651;28;20217;-83
2022/12/10 13:20:19;;;;;;;15.60;11.90;;;;;;;;;;5073000;28;20205;-83
2022/12/10 13:22:56;;;;;;;17.07;12.23;;;;;;;;;;5072291;28;20312;-83
2022/12/10 13:25:38;;;;;;;16.40;11.50;;;;;;;;;;5072125;28;20243;-83
2022/12/10 13:28:22;;;;;;;17.87;12.13;;;;;;;;;;5072675;28;20201;-83
2022/12/10 13:31:04;;;;;;;15.30;11.37;;;;;;;;;;5071949;28;20233;-83
2022/12/10 13:33:45;;;;;;;19.03;12.70;;;;;;;;;;5071991;28;20202;-83
2022/12/10 13:36:12;;;;;;;17.10;12.53;;;;;;;;;;5071580;28;20237;-83
2022/12/10 13:38:43;;;;;;;15.87;11.57;;;;;;;;;;5072115;28;20211;-82
2022/12/10 13:46:53;;;;;;;17.87;12.33;;;;;;;;;;5071574;28;20232;-82
2022/12/10 13:49:21;;;;;;;16.87;11.37;;;;;;;;;;5072182;28;20216;-82
2022/12/10 13:51:53;;;;;;;17.83;12.00;;;;;;;;;;5071455;28;20239;-82
2022/12/10 13:54:31;;;;;;;16.60;11.10;;;;;;;;;;5071900;28;20296;-82
2022/12/10 13:57:06;;;;;;;18.10;12.30;;;;;;;;;;5071607;28;20349;-82
2022/12/10 13:59:36;;;;;;;14.57;11.70;;;;;;;;;;5071940;28;20191;-83
2022/12/10 14:02:16;;;;;;;14.90;11.27;;;;;;;;;;5071556;28;20248;-82
2022/12/10 14:04:47;;;;;;;17.97;12.17;;;;;;;;;;5072238;28;20191;-83
2022/12/10 14:07:15;;;;;;;16.97;10.87;;;;;;;;;;5071360;28;20271;-83
2022/12/10 14:09:45;;;;;;;15.73;10.67;;;;;;;;;;5071870;28;20205;-83
2022/12/10 14:12:16;;;;;;;14.70;11.60;;;;;;;;;;5071267;28;20239;-82
2022/12/10 14:14:46;;;;;;;14.40;10.30;;;;;;;;;;5071701;28;20188;-82
2022/12/10 14:17:15;;;;;;;13.40;10.63;;;;;;;;;;5071446;28;20244;-82
2022/12/10 14:19:43;;;;;;;14.77;11.60;;;;;;;;;;5072251;28;20209;-82
2022/12/10 14:22:14;;;;;;;16.00;11.23;;;;;;;;;;5071169;28;20237;-82
2022/12/10 14:24:43;;;;;;;14.63;11.20;;;;;;;;;;5071547;28;20660;-82
2022/12/10 14:27:13;;;;;;;16.00;11.33;;;;;;;;;;5070472;28;20229;-82
2022/12/10 14:29:46;;;;;;;17.60;11.30;;;;;;;;;;5071520;28;20200;-82
2022/12/10 14:32:15;;;;;;;15.73;10.77;;;;;;;;;;5070915;28;20302;-82
2022/12/10 14:34:43;;;;;;;16.50;11.87;;;;;;;;;;5091007;22;20617;-84
2022/12/10 14:37:13;;;;;;;14.67;10.73;;;;;;;;;;5080997;28;20259;-84
2022/12/10 14:39:41;;;;;;;14.13;10.83;;;;;;;;;;5091521;28;20216;-84
2022/12/10 14:42:08;;;;;;;17.07;11.30;;;;;;;;;;5091132;28;20235;-84